createdAt,value
2023-05-13T00:00:24.370Z,0.00
2023-05-13T00:00:46.229Z,0.00
2023-05-13T00:01:09.047Z,0.00
2023-05-13T00:01:44.237Z,0.00
2023-05-13T00:02:15.976Z,0.00
2023-05-13T00:02:46.971Z,0.00
2023-05-13T00:03:16.475Z,0.00
2023-05-13T00:03:50.691Z,0.00
2023-05-13T00:04:23.248Z,0.00
2023-05-13T00:04:45.714Z,0.00
2023-05-13T00:05:08.888Z,0.00
2023-05-13T00:05:43.368Z,0.00
2023-05-13T00:06:15.562Z,0.00
2023-05-13T00:06:47.440Z,0.00
2023-05-13T00:07:19.059Z,0.00
2023-05-13T00:07:41.860Z,0.00
2023-05-13T00:08:04.477Z,0.00
2023-05-13T00:08:40.316Z,0.00
2023-05-13T00:09:10.805Z,0.00
2023-05-13T00:09:43.066Z,0.00
2023-05-13T00:10:15.327Z,0.00
2023-05-13T00:10:47.096Z,0.00
2023-05-13T00:11:18.928Z,0.00
2023-05-13T00:11:41.729Z,0.00
2023-05-13T00:12:04.946Z,0.00
2023-05-13T00:12:39.098Z,0.00
2023-05-13T00:13:12.675Z,0.00
2023-05-13T00:13:43.178Z,0.00
2023-05-13T00:14:15.118Z,0.00
2023-05-13T00:14:46.858Z,0.00
2023-05-13T00:15:16.329Z,0.00
2023-05-13T00:15:47.822Z,0.00
2023-05-13T00:16:23.245Z,0.00
2023-05-13T00:16:45.735Z,0.00
2023-05-13T00:17:08.036Z,0.00
2023-05-13T00:17:43.147Z,0.00
2023-05-13T00:18:15.183Z,0.00
2023-05-13T00:18:47.595Z,0.00
2023-05-13T00:19:19.009Z,0.00
2023-05-13T00:19:41.577Z,0.00
2023-05-13T00:20:04.900Z,0.00
2023-05-13T00:20:39.229Z,0.00
2023-05-13T00:21:11.529Z,0.00
2023-05-13T00:21:42.838Z,0.00
2023-05-13T00:22:14.930Z,0.00
2023-05-13T00:22:49.309Z,0.00
2023-05-13T00:23:19.727Z,0.00
2023-05-13T00:23:42.625Z,0.00
2023-05-13T00:24:04.926Z,0.00
2023-05-13T00:24:39.054Z,0.00
2023-05-13T00:25:11.557Z,0.00
2023-05-13T00:25:43.418Z,0.00
2023-05-13T00:26:14.859Z,0.00
2023-05-13T00:26:47.517Z,0.00
2023-05-13T00:27:19.000Z,0.00
2023-05-13T00:27:41.991Z,0.00
2023-05-13T00:28:04.402Z,0.00
2023-05-13T00:28:38.923Z,0.00
2023-05-13T00:29:11.632Z,0.00
2023-05-13T00:29:43.117Z,0.00
2023-05-13T00:30:15.252Z,0.00
2023-05-13T00:30:47.143Z,0.00
2023-05-13T00:31:19.009Z,0.00
2023-05-13T00:31:42.159Z,0.00
2023-05-13T00:32:04.325Z,0.00
2023-05-13T00:32:39.727Z,0.00
2023-05-13T00:33:11.188Z,0.00
2023-05-13T00:33:43.216Z,0.00
2023-05-13T00:34:15.539Z,0.00
2023-05-13T00:34:47.162Z,0.00
2023-05-13T00:35:19.643Z,0.00
2023-05-13T00:35:42.223Z,0.00
2023-05-13T00:36:05.044Z,0.00
2023-05-13T00:36:38.780Z,0.00
2023-05-13T00:37:10.851Z,0.00
2023-05-13T00:37:43.356Z,0.00
2023-05-13T00:38:16.023Z,0.00
2023-05-13T00:38:47.030Z,0.00
2023-05-13T00:39:16.414Z,0.00
2023-05-13T00:39:47.666Z,0.00
2023-05-13T00:40:23.169Z,0.00
2023-05-13T00:40:45.625Z,0.00
2023-05-13T00:41:07.946Z,0.00
2023-05-13T00:41:43.213Z,0.00
2023-05-13T00:42:15.029Z,0.00
2023-05-13T00:42:46.877Z,0.00
2023-05-13T00:43:16.480Z,0.00
2023-05-13T00:43:48.408Z,0.00
2023-05-13T00:44:22.797Z,0.00
2023-05-13T00:44:45.488Z,0.00
2023-05-13T00:45:08.313Z,0.00
2023-05-13T00:45:43.512Z,0.00
2023-05-13T00:46:15.441Z,0.00
2023-05-13T00:46:49.132Z,0.00
2023-05-13T00:47:19.284Z,0.00
2023-05-13T00:47:41.684Z,0.00
2023-05-13T00:48:04.348Z,0.00
2023-05-13T00:48:39.697Z,0.00
2023-05-13T00:49:11.276Z,0.00
2023-05-13T00:49:42.879Z,0.00
2023-05-13T00:50:14.798Z,0.00
2023-05-13T00:50:47.054Z,0.00
2023-05-13T00:51:20.176Z,0.00
2023-05-13T00:51:51.236Z,0.00
2023-05-13T00:52:23.118Z,0.00
2023-05-13T00:52:45.611Z,0.00
2023-05-13T00:53:08.893Z,0.00
2023-05-13T00:53:44.805Z,0.00
2023-05-13T00:54:14.934Z,0.00
2023-05-13T00:54:47.236Z,0.00
2023-05-13T00:55:17.098Z,0.00
2023-05-13T00:55:48.077Z,0.00
2023-05-13T00:56:23.445Z,0.00
2023-05-13T00:56:45.790Z,0.00
2023-05-13T00:57:08.516Z,0.00
2023-05-13T00:57:44.113Z,0.00
2023-05-13T00:58:15.075Z,0.00
2023-05-13T00:58:46.961Z,0.00
2023-05-13T00:59:16.650Z,0.00
2023-05-13T00:59:48.582Z,0.00
2023-05-13T01:00:23.327Z,0.00
2023-05-13T01:00:45.787Z,0.00
2023-05-13T01:01:09.037Z,0.00
2023-05-13T01:01:43.160Z,0.00
2023-05-13T01:02:16.718Z,0.00
2023-05-13T01:02:47.557Z,0.00
2023-05-13T01:03:19.256Z,0.00
2023-05-13T01:03:47.189Z,0.00
2023-05-13T01:04:07.379Z,0.00
2023-05-13T01:04:41.233Z,0.00
2023-05-13T01:05:10.952Z,0.00
2023-05-13T01:05:43.422Z,0.00
2023-05-13T01:06:15.092Z,0.00
2023-05-13T01:06:47.127Z,0.00
2023-05-13T01:07:16.290Z,0.00
2023-05-13T01:07:47.887Z,0.00
2023-05-13T01:08:23.381Z,0.00
2023-05-13T01:08:46.042Z,0.00
2023-05-13T01:09:09.567Z,0.00
2023-05-13T01:09:42.720Z,0.00
2023-05-13T01:10:14.792Z,0.00
2023-05-13T01:10:46.651Z,0.00
2023-05-13T01:11:17.442Z,0.00
2023-05-13T01:11:48.085Z,0.00
2023-05-13T01:12:23.170Z,0.00
2023-05-13T01:12:51.305Z,0.00
2023-05-13T01:13:08.568Z,0.00
2023-05-13T01:13:43.545Z,0.00
2023-05-13T01:14:15.443Z,0.00
2023-05-13T01:14:46.717Z,0.00
2023-05-13T01:15:16.712Z,0.00
2023-05-13T01:15:48.136Z,0.00
2023-05-13T01:16:22.939Z,0.00
2023-05-13T01:16:47.529Z,0.00
2023-05-13T01:17:08.181Z,0.00
2023-05-13T01:17:43.505Z,0.00
2023-05-13T01:18:14.878Z,0.00
2023-05-13T01:18:47.307Z,0.00
2023-05-13T01:19:19.047Z,0.00
2023-05-13T01:19:44.924Z,0.00
2023-05-13T01:20:04.007Z,0.00
2023-05-13T01:20:39.007Z,0.00
2023-05-13T01:21:12.892Z,0.00
2023-05-13T01:21:43.932Z,0.00
2023-05-13T01:22:14.896Z,0.00
2023-05-13T01:22:49.044Z,0.00
2023-05-13T01:23:18.830Z,0.00
2023-05-13T01:23:48.043Z,0.00
2023-05-13T01:24:22.828Z,0.00
2023-05-13T01:24:45.476Z,0.00
2023-05-13T01:25:09.253Z,0.00
2023-05-13T01:25:44.328Z,0.00
2023-05-13T01:26:15.642Z,0.00
2023-05-13T01:26:47.524Z,0.00
2023-05-13T01:27:18.203Z,0.00
2023-05-13T01:27:48.211Z,0.00
2023-05-13T01:28:23.269Z,0.00
2023-05-13T01:28:46.044Z,0.00
2023-05-13T01:29:10.076Z,0.00
2023-05-13T01:29:45.297Z,0.00
2023-05-13T01:30:14.836Z,0.00
2023-05-13T01:30:47.215Z,0.00
2023-05-13T01:31:18.748Z,0.00
2023-05-13T01:31:51.320Z,0.00
2023-05-13T01:32:22.908Z,0.00
2023-05-13T01:32:45.746Z,0.00
2023-05-13T01:33:08.287Z,0.00
2023-05-13T01:33:45.266Z,0.00
2023-05-13T01:34:14.752Z,0.00
2023-05-13T01:34:46.898Z,0.00
2023-05-13T01:35:17.592Z,0.00
2023-05-13T01:35:47.816Z,0.00
2023-05-13T01:36:22.835Z,0.00
2023-05-13T01:36:45.966Z,0.00
2023-05-13T01:37:08.200Z,0.00
2023-05-13T01:37:45.848Z,0.00
2023-05-13T01:38:14.744Z,0.00
2023-05-13T01:38:46.847Z,0.00
2023-05-13T01:39:17.191Z,0.00
2023-05-13T01:39:47.998Z,0.00
2023-05-13T01:40:32.453Z,0.00
2023-05-13T01:40:46.386Z,0.00
2023-05-13T01:41:08.076Z,0.00
2023-05-13T01:41:43.755Z,0.00
2023-05-13T01:42:15.414Z,0.00
2023-05-13T01:42:46.740Z,0.00
2023-05-13T01:43:16.924Z,0.00
2023-05-13T01:43:48.000Z,0.00
2023-05-13T01:44:22.978Z,0.00
2023-05-13T01:44:47.073Z,0.00
2023-05-13T01:45:08.167Z,0.00
2023-05-13T01:45:43.232Z,0.00
2023-05-13T01:46:15.008Z,0.00
2023-05-13T01:46:48.497Z,0.00
2023-05-13T01:47:18.944Z,0.00
2023-05-13T01:47:41.808Z,0.00
2023-05-13T01:48:04.633Z,0.00
2023-05-13T01:48:38.771Z,0.00
2023-05-13T01:49:11.366Z,0.00
2023-05-13T01:49:42.965Z,0.00
2023-05-13T01:50:16.041Z,0.00
2023-05-13T01:50:48.766Z,0.00
2023-05-13T01:51:18.823Z,0.00
2023-05-13T01:51:41.541Z,0.00
2023-05-13T01:52:04.568Z,0.00
2023-05-13T01:52:39.778Z,0.00
2023-05-13T01:53:10.647Z,0.00
2023-05-13T01:53:42.835Z,0.00
2023-05-13T01:54:14.663Z,0.00
2023-05-13T01:54:48.790Z,0.00
2023-05-13T01:55:19.037Z,0.00
2023-05-13T01:55:41.759Z,0.00
2023-05-13T01:56:04.118Z,0.00
2023-05-13T01:56:39.385Z,0.00
2023-05-13T01:57:11.445Z,0.00
2023-05-13T01:57:43.217Z,0.00
2023-05-13T01:58:15.049Z,0.00
2023-05-13T01:58:46.752Z,0.00
2023-05-13T01:59:17.658Z,0.00
2023-05-13T01:59:49.623Z,0.00
2023-05-13T02:00:23.221Z,0.00
2023-05-13T02:00:45.688Z,0.00
2023-05-13T02:01:08.100Z,0.00
2023-05-13T02:01:43.822Z,0.00
2023-05-13T02:02:15.141Z,0.00
2023-05-13T02:02:47.173Z,0.00
2023-05-13T02:03:18.470Z,0.00
2023-05-13T02:03:50.801Z,0.00
2023-05-13T02:04:23.168Z,0.00
2023-05-13T02:04:45.660Z,0.00
2023-05-13T02:05:08.670Z,0.00
2023-05-13T02:05:44.085Z,0.00
2023-05-13T02:06:15.019Z,0.00
2023-05-13T02:06:47.161Z,0.00
2023-05-13T02:07:19.465Z,0.00
2023-05-13T02:07:42.166Z,0.00
2023-05-13T02:08:04.733Z,0.00
2023-05-13T02:08:39.227Z,0.00
2023-05-13T02:09:11.141Z,0.00
2023-05-13T02:09:42.880Z,0.00
2023-05-13T02:10:14.734Z,0.00
2023-05-13T02:10:46.822Z,0.00
2023-05-13T02:11:16.742Z,0.00
2023-05-13T02:11:50.876Z,0.00
2023-05-13T02:12:23.602Z,0.00
2023-05-13T02:12:45.752Z,0.00
2023-05-13T02:13:11.135Z,0.00
2023-05-13T02:13:43.267Z,0.00
2023-05-13T02:14:15.126Z,0.00
2023-05-13T02:14:46.741Z,0.00
2023-05-13T02:15:16.347Z,0.00
2023-05-13T02:15:48.304Z,0.00
2023-05-13T02:16:24.096Z,0.00
2023-05-13T02:16:46.838Z,0.00
2023-05-13T02:17:09.108Z,0.00
2023-05-13T02:17:42.906Z,0.00
2023-05-13T02:18:14.731Z,0.00
2023-05-13T02:18:47.908Z,0.00
2023-05-13T02:19:18.769Z,0.00
2023-05-13T02:19:41.465Z,0.00
2023-05-13T02:20:09.301Z,0.00
2023-05-13T02:20:39.120Z,0.00
2023-05-13T02:21:11.436Z,0.00
2023-05-13T02:21:43.236Z,0.00
2023-05-13T02:22:15.531Z,0.00
2023-05-13T02:22:47.282Z,0.00
2023-05-13T02:23:19.071Z,0.00
2023-05-13T02:23:41.919Z,0.00
2023-05-13T02:24:04.209Z,0.00
2023-05-13T02:24:38.848Z,0.00
2023-05-13T02:25:10.679Z,0.00
2023-05-13T02:25:42.865Z,0.00
2023-05-13T02:26:14.632Z,0.00
2023-05-13T02:26:47.789Z,0.00
2023-05-13T02:27:19.180Z,0.00
2023-05-13T02:27:43.128Z,0.00
2023-05-13T02:28:04.285Z,0.00
2023-05-13T02:28:39.306Z,0.00
2023-05-13T02:29:11.576Z,0.00
2023-05-13T02:29:42.799Z,0.00
2023-05-13T02:30:15.049Z,0.00
2023-05-13T02:30:47.364Z,0.00
2023-05-13T02:31:18.854Z,0.00
2023-05-13T02:31:49.726Z,0.00
2023-05-13T02:32:22.813Z,0.00
2023-05-13T02:32:45.641Z,0.00
2023-05-13T02:33:07.979Z,0.00
2023-05-13T02:33:42.908Z,0.00
2023-05-13T02:34:14.932Z,0.00
2023-05-13T02:34:47.207Z,0.00
2023-05-13T02:35:17.096Z,0.00
2023-05-13T02:35:48.008Z,0.00
2023-05-13T02:36:25.417Z,0.00
2023-05-13T02:36:45.486Z,0.00
2023-05-13T02:37:08.640Z,0.00
2023-05-13T02:37:42.735Z,0.00
2023-05-13T02:38:15.232Z,0.00
2023-05-13T02:38:47.710Z,0.00
2023-05-13T02:39:19.259Z,0.00
2023-05-13T02:39:41.831Z,0.00
2023-05-13T02:40:04.578Z,0.00
2023-05-13T02:40:39.239Z,0.00
2023-05-13T02:41:11.170Z,0.00
2023-05-13T02:41:43.665Z,0.00
2023-05-13T02:42:15.223Z,0.00
2023-05-13T02:42:46.842Z,0.00
2023-05-13T02:43:16.298Z,0.00
2023-05-13T02:43:48.124Z,0.00
2023-05-13T02:44:23.317Z,0.00
2023-05-13T02:44:45.786Z,0.00
2023-05-13T02:45:08.601Z,0.00
2023-05-13T02:45:42.870Z,0.00
2023-05-13T02:46:15.848Z,0.00
2023-05-13T02:46:46.827Z,0.00
2023-05-13T02:47:16.478Z,0.00
2023-05-13T02:47:48.041Z,0.00
2023-05-13T02:48:23.484Z,0.00
2023-05-13T02:48:45.880Z,0.00
2023-05-13T02:49:08.503Z,0.00
2023-05-13T02:49:43.154Z,0.00
2023-05-13T02:50:14.953Z,0.00
2023-05-13T02:50:47.481Z,0.00
2023-05-13T02:51:18.768Z,0.00
2023-05-13T02:51:48.019Z,0.00
2023-05-13T02:52:22.724Z,0.00
2023-05-13T02:52:45.558Z,0.00
2023-05-13T02:53:08.163Z,0.00
2023-05-13T02:53:43.088Z,0.00
2023-05-13T02:54:15.280Z,0.00
2023-05-13T02:54:47.116Z,0.00
2023-05-13T02:55:17.200Z,0.00
2023-05-13T02:55:47.764Z,0.00
2023-05-13T02:56:22.996Z,0.00
2023-05-13T02:56:45.853Z,0.00
2023-05-13T02:57:08.675Z,0.00
2023-05-13T02:57:43.215Z,0.00
2023-05-13T02:58:15.316Z,0.00
2023-05-13T02:58:46.709Z,0.00
2023-05-13T02:59:16.432Z,0.00
2023-05-13T02:59:48.831Z,0.00
2023-05-13T03:00:25.827Z,0.00
2023-05-13T03:00:55.040Z,0.00
2023-05-13T03:01:26.985Z,0.00
2023-05-13T03:01:49.387Z,0.00
2023-05-13T03:02:12.675Z,0.00
2023-05-13T03:02:47.191Z,0.00
2023-05-13T03:03:17.503Z,0.00
2023-05-13T03:03:48.208Z,0.00
2023-05-13T03:04:23.441Z,0.00
2023-05-13T03:04:45.813Z,0.00
2023-05-13T03:05:08.405Z,0.00
2023-05-13T03:05:43.326Z,0.00
2023-05-13T03:06:15.480Z,0.00
2023-05-13T03:06:47.214Z,0.00
2023-05-13T03:07:18.879Z,0.00
2023-05-13T03:07:41.674Z,0.00
2023-05-13T03:08:04.754Z,0.00
2023-05-13T03:08:39.062Z,0.00
2023-05-13T03:09:11.371Z,0.00
2023-05-13T03:09:42.704Z,0.00
2023-05-13T03:10:14.671Z,0.00
2023-05-13T03:10:46.731Z,0.00
2023-05-13T03:11:17.243Z,0.00
2023-05-13T03:11:48.171Z,0.00
2023-05-13T03:12:23.733Z,0.00
2023-05-13T03:12:46.313Z,0.00
2023-05-13T03:13:08.952Z,0.00
2023-05-13T03:13:43.441Z,0.00
2023-05-13T03:14:15.396Z,0.00
2023-05-13T03:14:46.873Z,0.00
2023-05-13T03:15:16.360Z,0.00
2023-05-13T03:15:48.751Z,0.00
2023-05-13T03:16:24.034Z,0.00
2023-05-13T03:16:46.524Z,0.00
2023-05-13T03:17:08.974Z,0.00
2023-05-13T03:17:42.727Z,0.00
2023-05-13T03:18:15.116Z,0.00
2023-05-13T03:18:46.629Z,0.00
2023-05-13T03:19:16.475Z,0.00
2023-05-13T03:19:48.071Z,0.00
2023-05-13T03:20:24.140Z,0.00
2023-05-13T03:20:46.331Z,0.00
2023-05-13T03:21:09.259Z,0.00
2023-05-13T03:21:43.836Z,0.00
2023-05-13T03:22:14.723Z,0.00
2023-05-13T03:22:47.077Z,0.00
2023-05-13T03:23:16.231Z,0.00
2023-05-13T03:23:48.165Z,0.00
2023-05-13T03:24:23.059Z,0.00
2023-05-13T03:24:45.422Z,0.00
2023-05-13T03:25:08.531Z,0.00
2023-05-13T03:25:42.704Z,0.00
2023-05-13T03:26:14.907Z,0.00
2023-05-13T03:26:46.690Z,0.00
2023-05-13T03:27:16.529Z,0.00
2023-05-13T03:27:48.285Z,0.00
2023-05-13T03:28:23.240Z,0.00
2023-05-13T03:28:46.024Z,0.00
2023-05-13T03:29:09.278Z,0.00
2023-05-13T03:29:43.175Z,0.00
2023-05-13T03:30:15.527Z,0.00
2023-05-13T03:30:47.197Z,0.00
2023-05-13T03:31:19.400Z,0.00
2023-05-13T03:31:42.775Z,0.00
2023-05-13T03:32:06.020Z,0.00
2023-05-13T03:32:39.245Z,0.00
2023-05-13T03:33:11.440Z,0.00
2023-05-13T03:33:43.075Z,0.85
2023-05-13T03:34:14.727Z,0.36
2023-05-13T03:34:46.691Z,0.36
2023-05-13T03:35:16.370Z,0.00
2023-05-13T03:35:47.846Z,0.36
2023-05-13T03:36:22.958Z,0.85
2023-05-13T03:36:45.675Z,0.85
2023-05-13T03:37:08.451Z,0.85
2023-05-13T03:37:43.758Z,1.22
2023-05-13T03:38:15.138Z,1.71
2023-05-13T03:38:47.550Z,1.71
2023-05-13T03:39:18.793Z,1.22
2023-05-13T03:39:49.097Z,2.08
2023-05-13T03:40:23.059Z,1.71
2023-05-13T03:40:45.424Z,1.71
2023-05-13T03:41:07.872Z,1.71
2023-05-13T03:41:43.216Z,2.57
2023-05-13T03:42:15.101Z,2.08
2023-05-13T03:42:46.668Z,2.08
2023-05-13T03:43:16.506Z,2.57
2023-05-13T03:43:47.999Z,2.57
2023-05-13T03:44:23.185Z,2.08
2023-05-13T03:44:45.882Z,2.94
2023-05-13T03:45:08.282Z,2.57
2023-05-13T03:45:43.671Z,2.94
2023-05-13T03:46:14.968Z,3.43
2023-05-13T03:46:46.953Z,2.94
2023-05-13T03:47:16.468Z,3.79
2023-05-13T03:47:48.309Z,3.43
2023-05-13T03:48:23.236Z,3.79
2023-05-13T03:48:45.701Z,3.43
2023-05-13T03:49:08.341Z,3.79
2023-05-13T03:49:45.405Z,4.28
2023-05-13T03:50:15.534Z,4.28
2023-05-13T03:50:47.387Z,4.28
2023-05-13T03:51:18.974Z,4.77
2023-05-13T03:51:41.757Z,5.14
2023-05-13T03:52:04.339Z,4.77
2023-05-13T03:52:39.705Z,5.63
2023-05-13T03:53:10.868Z,5.63
2023-05-13T03:53:42.779Z,5.63
2023-05-13T03:54:16.363Z,6.48
2023-05-13T03:54:47.392Z,6.48
2023-05-13T03:55:19.022Z,6.85
2023-05-13T03:55:41.828Z,6.85
2023-05-13T03:56:04.442Z,6.48
2023-05-13T03:56:38.910Z,6.85
2023-05-13T03:57:11.325Z,6.85
2023-05-13T03:57:43.334Z,8.19
2023-05-13T03:58:15.311Z,6.85
2023-05-13T03:58:47.189Z,8.19
2023-05-13T03:59:19.433Z,8.56
2023-05-13T03:59:41.993Z,8.56
2023-05-13T04:00:05.857Z,9.05
2023-05-13T04:00:39.593Z,9.05
2023-05-13T04:01:11.758Z,9.05
2023-05-13T04:01:43.741Z,9.54
2023-05-13T04:02:15.066Z,9.54
2023-05-13T04:02:46.988Z,9.54
2023-05-13T04:03:16.621Z,9.91
2023-05-13T04:03:48.695Z,10.39
2023-05-13T04:04:23.092Z,10.77
2023-05-13T04:04:45.600Z,10.39
2023-05-13T04:05:09.691Z,11.25
2023-05-13T04:05:42.596Z,10.77
2023-05-13T04:06:15.444Z,11.25
2023-05-13T04:06:47.150Z,11.25
2023-05-13T04:07:16.524Z,11.62
2023-05-13T04:07:47.880Z,12.11
2023-05-13T04:08:23.007Z,12.48
2023-05-13T04:08:45.614Z,12.11
2023-05-13T04:09:10.124Z,12.48
2023-05-13T04:09:42.705Z,13.82
2023-05-13T04:10:15.751Z,13.33
2023-05-13T04:10:46.888Z,12.97
2023-05-13T04:11:16.424Z,13.33
2023-05-13T04:11:48.668Z,14.31
2023-05-13T04:12:22.857Z,14.68
2023-05-13T04:12:45.739Z,14.68
2023-05-13T04:13:10.955Z,15.53
2023-05-13T04:13:43.466Z,15.17
2023-05-13T04:14:15.264Z,14.68
2023-05-13T04:14:46.772Z,15.53
2023-05-13T04:15:16.584Z,16.02
2023-05-13T04:15:48.050Z,16.02
2023-05-13T04:16:24.391Z,16.02
2023-05-13T04:16:46.653Z,16.39
2023-05-13T04:17:11.045Z,16.39
2023-05-13T04:17:43.007Z,16.88
2023-05-13T04:18:14.623Z,17.25
2023-05-13T04:18:46.788Z,16.88
2023-05-13T04:19:16.331Z,17.73
2023-05-13T04:19:48.248Z,18.11
2023-05-13T04:20:23.777Z,17.25
2023-05-13T04:20:46.589Z,18.11
2023-05-13T04:21:08.482Z,18.11
2023-05-13T04:21:43.386Z,18.11
2023-05-13T04:22:15.824Z,19.08
2023-05-13T04:22:48.727Z,18.11
2023-05-13T04:23:19.323Z,19.45
2023-05-13T04:23:41.963Z,19.45
2023-05-13T04:24:04.451Z,19.45
2023-05-13T04:24:38.692Z,19.45
2023-05-13T04:25:12.214Z,19.45
2023-05-13T04:25:43.910Z,19.45
2023-05-13T04:26:15.294Z,19.94
2023-05-13T04:26:46.860Z,20.80
2023-05-13T04:27:16.603Z,21.16
2023-05-13T04:27:48.729Z,20.80
2023-05-13T04:28:23.555Z,21.16
2023-05-13T04:28:46.407Z,21.65
2023-05-13T04:29:12.677Z,22.02
2023-05-13T04:29:43.312Z,22.02
2023-05-13T04:30:15.737Z,21.65
2023-05-13T04:30:46.745Z,22.02
2023-05-13T04:31:16.466Z,22.51
2023-05-13T04:31:48.442Z,23.36
2023-05-13T04:32:22.925Z,22.87
2023-05-13T04:32:45.553Z,22.51
2023-05-13T04:33:07.870Z,22.51
2023-05-13T04:33:45.545Z,22.87
2023-05-13T04:34:15.090Z,23.36
2023-05-13T04:34:46.717Z,23.85
2023-05-13T04:35:16.154Z,23.36
2023-05-13T04:35:47.998Z,23.36
2023-05-13T04:36:22.614Z,24.22
2023-05-13T04:36:45.180Z,24.22
2023-05-13T04:37:07.758Z,25.07
2023-05-13T04:37:42.754Z,24.71
2023-05-13T04:38:14.986Z,25.07
2023-05-13T04:38:46.569Z,25.56
2023-05-13T04:39:16.871Z,25.94
2023-05-13T04:39:48.033Z,25.56
2023-05-13T04:40:23.399Z,26.42
2023-05-13T04:40:45.940Z,26.42
2023-05-13T04:41:09.245Z,25.56
2023-05-13T04:41:43.013Z,25.07
2023-05-13T04:42:15.569Z,25.07
2023-05-13T04:42:47.022Z,25.56
2023-05-13T04:43:16.398Z,24.71
2023-05-13T04:43:48.323Z,24.71
2023-05-13T04:44:23.177Z,25.07
2023-05-13T04:44:45.848Z,24.71
2023-05-13T04:45:08.705Z,24.71
2023-05-13T04:45:42.814Z,24.22
2023-05-13T04:46:16.036Z,24.71
2023-05-13T04:46:47.122Z,24.71
2023-05-13T04:47:17.485Z,24.22
2023-05-13T04:47:48.195Z,24.71
2023-05-13T04:48:23.990Z,24.71
2023-05-13T04:48:46.164Z,24.71
2023-05-13T04:49:08.520Z,24.71
2023-05-13T04:49:44.670Z,25.07
2023-05-13T04:50:16.573Z,25.07
2023-05-13T04:50:46.602Z,24.71
2023-05-13T04:51:17.060Z,25.07
2023-05-13T04:51:48.664Z,25.56
2023-05-13T04:52:23.023Z,24.71
2023-05-13T04:52:45.383Z,25.56
2023-05-13T04:53:08.202Z,25.07
2023-05-13T04:53:42.835Z,25.56
2023-05-13T04:54:17.271Z,25.94
2023-05-13T04:54:47.712Z,26.42
2023-05-13T04:55:19.385Z,26.42
2023-05-13T04:55:42.237Z,26.79
2023-05-13T04:56:04.508Z,26.79
2023-05-13T04:56:41.203Z,27.28
2023-05-13T04:57:10.892Z,28.14
2023-05-13T04:57:43.735Z,28.63
2023-05-13T04:58:15.123Z,28.63
2023-05-13T04:58:47.225Z,29.48
2023-05-13T04:59:19.158Z,29.48
2023-05-13T04:59:41.839Z,29.85
2023-05-13T05:00:05.766Z,30.34
2023-05-13T05:00:42.341Z,31.19
2023-05-13T05:01:04.685Z,32.05
2023-05-13T05:01:43.121Z,32.90
2023-05-13T05:02:14.756Z,34.25
2023-05-13T05:02:46.819Z,35.97
2023-05-13T05:03:18.949Z,37.68
2023-05-13T05:03:41.753Z,39.02
2023-05-13T05:04:04.265Z,39.88
2023-05-13T05:04:38.698Z,43.31
2023-05-13T05:05:10.843Z,46.73
2023-05-13T05:05:42.737Z,49.42
2023-05-13T05:06:14.683Z,53.70
2023-05-13T05:06:46.592Z,57.62
2023-05-13T05:07:19.441Z,60.68
2023-05-13T05:07:57.072Z,65.45
2023-05-13T05:08:19.846Z,69.73
2023-05-13T05:08:48.149Z,72.79
2023-05-13T05:09:10.627Z,77.56
2023-05-13T05:09:42.565Z,82.33
2023-05-13T05:10:14.575Z,86.24
2023-05-13T05:10:52.301Z,90.16
2023-05-13T05:11:16.240Z,94.56
2023-05-13T05:11:47.956Z,95.79
2023-05-13T05:12:23.296Z,100.19
2023-05-13T05:12:46.046Z,100.56
2023-05-13T05:13:09.844Z,103.13
2023-05-13T05:13:42.598Z,105.33
2023-05-13T05:14:14.929Z,106.19
2023-05-13T05:14:46.739Z,108.39
2023-05-13T05:15:20.767Z,110.10
2023-05-13T05:15:41.862Z,110.59
2023-05-13T05:16:04.146Z,110.59
2023-05-13T05:16:40.408Z,108.88
2023-05-13T05:17:10.629Z,109.24
2023-05-13T05:17:42.794Z,106.68
2023-05-13T05:18:14.624Z,105.33
2023-05-13T05:18:46.925Z,103.13
2023-05-13T05:19:16.262Z,102.76
2023-05-13T05:19:48.010Z,101.41
2023-05-13T05:20:23.196Z,98.36
2023-05-13T05:20:45.919Z,96.65
2023-05-13T05:21:08.292Z,94.56
2023-05-13T05:21:42.946Z,92.36
2023-05-13T05:22:14.663Z,88.45
2023-05-13T05:22:46.955Z,86.73
2023-05-13T05:23:16.469Z,85.02
2023-05-13T05:23:47.953Z,83.68
2023-05-13T05:24:22.670Z,81.48
2023-05-13T05:24:45.357Z,81.10
2023-05-13T05:25:07.981Z,80.62
2023-05-13T05:25:42.652Z,78.41
2023-05-13T05:26:14.647Z,77.19
2023-05-13T05:26:46.625Z,76.70
2023-05-13T05:27:16.868Z,74.99
2023-05-13T05:27:48.098Z,73.65
2023-05-13T05:28:23.426Z,73.65
2023-05-13T05:28:48.062Z,73.28
2023-05-13T05:29:10.236Z,73.28
2023-05-13T05:29:42.948Z,71.93
2023-05-13T05:30:14.792Z,71.56
2023-05-13T05:30:48.076Z,71.93
2023-05-13T05:31:16.448Z,70.71
2023-05-13T05:31:48.101Z,71.07
2023-05-13T05:32:24.212Z,70.71
2023-05-13T05:32:45.639Z,69.73
2023-05-13T05:33:07.974Z,69.73
2023-05-13T05:33:42.646Z,70.71
2023-05-13T05:34:14.676Z,69.36
2023-05-13T05:34:47.062Z,68.87
2023-05-13T05:35:18.555Z,68.02
2023-05-13T05:35:41.845Z,68.87
2023-05-13T05:36:04.117Z,68.51
2023-05-13T05:36:38.795Z,68.02
2023-05-13T05:37:10.537Z,68.02
2023-05-13T05:37:42.698Z,68.02
2023-05-13T05:38:15.012Z,67.16
2023-05-13T05:38:47.184Z,67.65
2023-05-13T05:39:18.617Z,67.65
2023-05-13T05:39:50.670Z,67.16
2023-05-13T05:40:25.272Z,67.16
2023-05-13T05:40:46.005Z,67.16
2023-05-13T05:41:08.305Z,67.65
2023-05-13T05:41:42.906Z,67.16
2023-05-13T05:42:14.752Z,67.16
2023-05-13T05:42:46.597Z,66.80
2023-05-13T05:43:16.334Z,67.16
2023-05-13T05:43:48.224Z,67.65
2023-05-13T05:44:23.258Z,67.65
2023-05-13T05:44:47.833Z,68.51
2023-05-13T05:45:10.720Z,68.51
2023-05-13T05:45:42.900Z,68.51
2023-05-13T05:46:14.720Z,68.87
2023-05-13T05:46:46.834Z,68.87
2023-05-13T05:47:19.005Z,68.87
2023-05-13T05:47:44.587Z,71.56
2023-05-13T05:48:16.672Z,85.39
2023-05-13T05:48:47.946Z,89.79
2023-05-13T05:49:10.558Z,94.93
2023-05-13T05:49:42.753Z,94.07
2023-05-13T05:50:14.656Z,88.82
2023-05-13T05:50:46.953Z,81.48
2023-05-13T05:51:16.354Z,81.48
2023-05-13T05:51:50.706Z,85.88
2023-05-13T05:52:22.516Z,91.51
2023-05-13T05:52:45.676Z,97.50
2023-05-13T05:53:07.705Z,108.39
2023-05-13T05:53:42.693Z,114.51
2023-05-13T05:54:14.568Z,119.64
2023-05-13T05:54:46.772Z,126.12
2023-05-13T05:55:18.733Z,139.58
2023-05-13T05:55:48.035Z,142.27
2023-05-13T05:56:25.241Z,137.87
2023-05-13T05:56:45.898Z,140.93
2023-05-13T05:57:08.253Z,140.44
2023-05-13T05:57:42.760Z,155.73
2023-05-13T05:58:14.652Z,176.53
2023-05-13T05:58:46.853Z,178.24
2023-05-13T05:59:16.677Z,176.90
2023-05-13T05:59:50.747Z,176.53
2023-05-13T06:00:23.188Z,177.75
2023-05-13T06:00:46.122Z,178.24
2023-05-13T06:01:08.387Z,179.10
2023-05-13T06:01:43.276Z,181.30
2023-05-13T06:02:14.805Z,183.87
2023-05-13T06:02:46.879Z,185.22
2023-05-13T06:03:19.005Z,186.07
2023-05-13T06:03:53.145Z,187.78
2023-05-13T06:04:23.061Z,191.70
2023-05-13T06:04:45.591Z,193.41
2023-05-13T06:05:08.188Z,194.27
2023-05-13T06:05:42.731Z,195.61
2023-05-13T06:06:11.508Z,197.81
2023-05-13T06:06:47.359Z,199.53
2023-05-13T06:07:16.792Z,202.10
2023-05-13T06:07:51.624Z,202.95
2023-05-13T06:08:23.369Z,207.73
2023-05-13T06:08:46.093Z,209.93
2023-05-13T06:09:08.686Z,211.64
2023-05-13T06:09:42.789Z,213.35
2023-05-13T06:10:14.996Z,213.84
2023-05-13T06:10:47.355Z,212.49
2023-05-13T06:11:16.786Z,211.64
2023-05-13T06:11:50.602Z,203.81
2023-05-13T06:12:22.860Z,187.29
2023-05-13T06:12:45.659Z,211.64
2023-05-13T06:13:08.718Z,216.41
2023-05-13T06:13:45.742Z,219.47
2023-05-13T06:14:15.577Z,222.53
2023-05-13T06:14:47.224Z,220.69
2023-05-13T06:15:16.743Z,229.01
2023-05-13T06:15:53.276Z,227.66
2023-05-13T06:16:22.876Z,222.90
2023-05-13T06:16:45.411Z,181.67
2023-05-13T06:17:09.153Z,230.24
2023-05-13T06:17:42.623Z,247.61
2023-05-13T06:18:14.823Z,250.30
2023-05-13T06:18:46.973Z,174.81
2023-05-13T06:19:16.899Z,124.05
2023-05-13T06:19:52.314Z,215.56
2023-05-13T06:20:23.282Z,250.66
2023-05-13T06:20:45.721Z,249.44
2023-05-13T06:21:08.995Z,248.46
2023-05-13T06:21:43.031Z,249.44
2023-05-13T06:22:14.589Z,255.44
2023-05-13T06:22:46.970Z,257.64
2023-05-13T06:23:16.457Z,261.92
2023-05-13T06:23:51.541Z,262.41
2023-05-13T06:24:23.281Z,262.41
2023-05-13T06:24:45.684Z,263.27
2023-05-13T06:25:08.595Z,264.61
2023-05-13T06:25:42.842Z,264.61
2023-05-13T06:26:14.820Z,265.83
2023-05-13T06:26:46.790Z,264.98
2023-05-13T06:27:16.839Z,267.55
2023-05-13T06:27:51.561Z,265.83
2023-05-13T06:28:22.977Z,261.92
2023-05-13T06:28:45.718Z,264.61
2023-05-13T06:29:09.408Z,269.75
2023-05-13T06:29:44.007Z,273.66
2023-05-13T06:30:15.985Z,274.15
2023-05-13T06:30:47.846Z,271.95
2023-05-13T06:31:18.860Z,276.24
2023-05-13T06:31:52.205Z,283.20
2023-05-13T06:32:23.147Z,288.83
2023-05-13T06:33:00.081Z,289.32